Webster, NY

5:51 AM EST on December 26, 2014 (GMT -0500)
Five Mile Line Rd. near Plank Rd. | Change Station
CLOSE
Current Station
Personal Weather Station
Location: Webster/Penfield, NY
Elevation: 453 ft
Nearby Weather Stations

Elev 453 ft 43.19 °N, 77.48 °W | Updated 3 seconds ago

Overcast
Overcast
39.0 °F
Feels Like 35 °F
N
5.1
Wind Variable Wind from West
Gusts 17.3 mph

Today
High -- | Low -- °F
--% Chance of Precip.
Yesterday
High -- | Low -- °F
Precip. -- in
7:40 AM 4:40 PM
Waxing Crescent, 24% visible
Pressure 30.20 in
Visibility 10.0 miles
Clouds Few 2600 ft
Overcast 3200 ft
Windchill 35 °F
Dew Point 31 °F
Humidity 74%
Rainfall 0.00 in
Snow Depth Not available.
UV 0 out of 12
Pollen .10 out of 12
Air Quality Not available.
Flu Activity Not available.
METAR KROC 260954Z 27013KT 10SM FEW026 OVC032 04/M01 A3018 RMK AO2 SLP226 T00391011

More Conditions Fewer Conditions

Pressure 30.20 in
Visibility 10.0 miles
Clouds Few 2600 ft
Overcast 3200 ft
Windchill 35 °F
Dew Point 31 °F
Humidity 74%
Rainfall 0.00 in
Snow Depth Not available.
UV 0 out of 12
Pollen .10 out of 12
Air Quality Not available.
Flu Activity Not available.
METAR KROC 260954Z 27013KT 10SM FEW026 OVC032 04/M01 A3018 RMK AO2 SLP226 T00391011

More Conditions Fewer Conditions

10-Day Weather Forecast

Almanac

Astronomy

Dec. 26, 2014 Rise Set
Actual Time
Civil Twilight
Nautical Twilight
Astronomical Twilight
Moon
Length of Visible Light
Length of Day
Tomorrow will be .
, % of the Moon is Illuminated

Today's Extremes

State Highs State Lows

Community

WunderPhotos

Upload Photos

1,780,579 photos uploaded!

WunderBlogs® & News

Nearby

Air Quality

  Air Quality AQ Index Pollutant
Not available.

Snow Depth

Station Depth Elevation

Earthquake Activity

City Distance Mag. Time & Date
Minimum magnitude displayed is 2.5.

Coastal Water Temperatures

Place Temperature

Nearby Weather Stations